sensor_id;sensor_type;location;lat;lon;timestamp;P1;durP1;ratioP1;P2;durP2;ratioP2
7527;SDS011;3805;49.006;8.514;2023-03-30T00:00:14;11.27;;;3.33;;
7527;SDS011;3805;49.006;8.514;2023-03-30T00:03:07;6.70;;;3.50;;
7527;SDS011;3805;49.006;8.514;2023-03-30T00:06:01;9.20;;;4.27;;
7527;SDS011;3805;49.006;8.514;2023-03-30T00:08:51;10.20;;;4.73;;
7527;SDS011;3805;49.006;8.514;2023-03-30T00:11:43;8.43;;;4.77;;
7527;SDS011;3805;49.006;8.514;2023-03-30T00:14:31;10.40;;;3.53;;
7527;SDS011;3805;49.006;8.514;2023-03-30T00:17:23;7.90;;;3.83;;
7527;SDS011;3805;49.006;8.514;2023-03-30T00:20:13;14.10;;;4.20;;
7527;SDS011;3805;49.006;8.514;2023-03-30T00:23:03;9.73;;;3.40;;
7527;SDS011;3805;49.006;8.514;2023-03-30T00:25:51;10.70;;;3.90;;
7527;SDS011;3805;49.006;8.514;2023-03-30T00:28:40;9.03;;;4.30;;
7527;SDS011;3805;49.006;8.514;2023-03-30T00:31:28;5.80;;;3.97;;
7527;SDS011;3805;49.006;8.514;2023-03-30T00:34:17;10.40;;;3.90;;
7527;SDS011;3805;49.006;8.514;2023-03-30T00:37:07;8.60;;;5.77;;
7527;SDS011;3805;49.006;8.514;2023-03-30T00:39:55;11.20;;;5.83;;
7527;SDS011;3805;49.006;8.514;2023-03-30T00:42:44;8.60;;;5.60;;
7527;SDS011;3805;49.006;8.514;2023-03-30T00:45:33;14.53;;;6.27;;
7527;SDS011;3805;49.006;8.514;2023-03-30T00:48:23;7.53;;;5.27;;
7527;SDS011;3805;49.006;8.514;2023-03-30T00:51:13;11.43;;;6.17;;
7527;SDS011;3805;49.006;8.514;2023-03-30T00:54:04;7.83;;;4.97;;
7527;SDS011;3805;49.006;8.514;2023-03-30T00:56:54;13.33;;;5.60;;
7527;SDS011;3805;49.006;8.514;2023-03-30T00:59:43;12.73;;;5.07;;
7527;SDS011;3805;49.006;8.514;2023-03-30T01:02:34;5.50;;;4.50;;
7527;SDS011;3805;49.006;8.514;2023-03-30T01:05:24;9.23;;;5.60;;
7527;SDS011;3805;49.006;8.514;2023-03-30T01:08:14;9.17;;;5.60;;
7527;SDS011;3805;49.006;8.514;2023-03-30T01:11:05;10.37;;;5.33;;
7527;SDS011;3805;49.006;8.514;2023-03-30T01:13:55;8.23;;;5.60;;
7527;SDS011;3805;49.006;8.514;2023-03-30T01:16:46;9.40;;;5.80;;
7527;SDS011;3805;49.006;8.514;2023-03-30T01:19:43;11.00;;;6.60;;
7527;SDS011;3805;49.006;8.514;2023-03-30T01:26:12;9.63;;;6.53;;
7527;SDS011;3805;49.006;8.514;2023-03-30T01:29:23;8.90;;;5.73;;
7527;SDS011;3805;49.006;8.514;2023-03-30T01:32:28;10.23;;;5.53;;
7527;SDS011;3805;49.006;8.514;2023-03-30T01:35:42;7.50;;;6.17;;
7527;SDS011;3805;49.006;8.514;2023-03-30T01:38:57;9.10;;;6.00;;
7527;SDS011;3805;49.006;8.514;2023-03-30T01:42:01;12.37;;;6.93;;
7527;SDS011;3805;49.006;8.514;2023-03-30T01:44:55;10.50;;;5.50;;
7527;SDS011;3805;49.006;8.514;2023-03-30T01:47:49;10.63;;;6.40;;
7527;SDS011;3805;49.006;8.514;2023-03-30T01:50:41;11.10;;;6.30;;
7527;SDS011;3805;49.006;8.514;2023-03-30T01:53:34;9.77;;;5.77;;
7527;SDS011;3805;49.006;8.514;2023-03-30T01:56:27;10.37;;;5.33;;
7527;SDS011;3805;49.006;8.514;2023-03-30T01:59:19;9.97;;;5.80;;
7527;SDS011;3805;49.006;8.514;2023-03-30T02:02:11;11.00;;;5.20;;
7527;SDS011;3805;49.006;8.514;2023-03-30T02:05:01;7.90;;;4.67;;
7527;SDS011;3805;49.006;8.514;2023-03-30T02:07:51;11.17;;;5.03;;
7527;SDS011;3805;49.006;8.514;2023-03-30T02:10:42;12.97;;;4.87;;
7527;SDS011;3805;49.006;8.514;2023-03-30T02:13:33;7.90;;;4.00;;
7527;SDS011;3805;49.006;8.514;2023-03-30T02:16:25;14.80;;;4.70;;
7527;SDS011;3805;49.006;8.514;2023-03-30T02:19:16;14.30;;;5.03;;
7527;SDS011;3805;49.006;8.514;2023-03-30T02:22:06;19.87;;;4.93;;
7527;SDS011;3805;49.006;8.514;2023-03-30T02:24:55;6.93;;;4.37;;
7527;SDS011;3805;49.006;8.514;2023-03-30T02:27:44;15.80;;;3.97;;
7527;SDS011;3805;49.006;8.514;2023-03-30T02:30:37;10.50;;;5.63;;
7527;SDS011;3805;49.006;8.514;2023-03-30T02:33:30;10.87;;;4.70;;
7527;SDS011;3805;49.006;8.514;2023-03-30T02:36:31;10.83;;;4.60;;
7527;SDS011;3805;49.006;8.514;2023-03-30T02:39:31;15.23;;;5.77;;
7527;SDS011;3805;49.006;8.514;2023-03-30T02:42:28;9.33;;;4.53;;
7527;SDS011;3805;49.006;8.514;2023-03-30T02:45:25;14.67;;;5.37;;
7527;SDS011;3805;49.006;8.514;2023-03-30T02:48:24;10.73;;;5.20;;
7527;SDS011;3805;49.006;8.514;2023-03-30T02:51:23;15.87;;;4.33;;
7527;SDS011;3805;49.006;8.514;2023-03-30T02:54:22;9.27;;;4.03;;
7527;SDS011;3805;49.006;8.514;2023-03-30T02:57:21;8.87;;;4.63;;
7527;SDS011;3805;49.006;8.514;2023-03-30T03:00:15;9.30;;;4.47;;
7527;SDS011;3805;49.006;8.514;2023-03-30T03:03:07;16.20;;;5.33;;
7527;SDS011;3805;49.006;8.514;2023-03-30T03:06:01;16.63;;;5.00;;
7527;SDS011;3805;49.006;8.514;2023-03-30T03:08:51;16.23;;;5.07;;
7527;SDS011;3805;49.006;8.514;2023-03-30T03:11:41;16.10;;;4.53;;
7527;SDS011;3805;49.006;8.514;2023-03-30T03:14:29;12.60;;;4.40;;
7527;SDS011;3805;49.006;8.514;2023-03-30T03:17:18;9.90;;;4.40;;
7527;SDS011;3805;49.006;8.514;2023-03-30T03:20:08;14.50;;;5.50;;
7527;SDS011;3805;49.006;8.514;2023-03-30T03:22:59;11.37;;;4.70;;
7527;SDS011;3805;49.006;8.514;2023-03-30T03:25:47;13.53;;;4.47;;
7527;SDS011;3805;49.006;8.514;2023-03-30T03:28:36;12.07;;;4.53;;
7527;SDS011;3805;49.006;8.514;2023-03-30T03:31:24;14.03;;;4.90;;
7527;SDS011;3805;49.006;8.514;2023-03-30T03:34:13;12.43;;;5.13;;
7527;SDS011;3805;49.006;8.514;2023-03-30T03:37:01;9.93;;;4.70;;
7527;SDS011;3805;49.006;8.514;2023-03-30T03:39:51;16.53;;;5.73;;
7527;SDS011;3805;49.006;8.514;2023-03-30T03:42:40;13.73;;;5.73;;
7527;SDS011;3805;49.006;8.514;2023-03-30T03:45:28;9.10;;;4.90;;
7527;SDS011;3805;49.006;8.514;2023-03-30T03:48:17;12.73;;;4.50;;
7527;SDS011;3805;49.006;8.514;2023-03-30T03:51:07;14.83;;;5.93;;
7527;SDS011;3805;49.006;8.514;2023-03-30T03:53:57;14.27;;;6.10;;
7527;SDS011;3805;49.006;8.514;2023-03-30T03:56:47;15.30;;;5.67;;
7527;SDS011;3805;49.006;8.514;2023-03-30T03:59:37;11.37;;;4.80;;
7527;SDS011;3805;49.006;8.514;2023-03-30T04:02:26;8.40;;;4.43;;
7527;SDS011;3805;49.006;8.514;2023-03-30T04:05:15;13.70;;;5.20;;
7527;SDS011;3805;49.006;8.514;2023-03-30T04:08:03;9.37;;;5.30;;
7527;SDS011;3805;49.006;8.514;2023-03-30T04:11:02;11.20;;;5.53;;
7527;SDS011;3805;49.006;8.514;2023-03-30T04:13:53;9.00;;;5.90;;
7527;SDS011;3805;49.006;8.514;2023-03-30T04:16:42;13.97;;;6.10;;
7527;SDS011;3805;49.006;8.514;2023-03-30T04:19:30;13.70;;;5.40;;
7527;SDS011;3805;49.006;8.514;2023-03-30T04:22:19;16.40;;;5.93;;
7527;SDS011;3805;49.006;8.514;2023-03-30T04:25:10;18.47;;;5.70;;
7527;SDS011;3805;49.006;8.514;2023-03-30T04:28:01;17.33;;;5.57;;
7527;SDS011;3805;49.006;8.514;2023-03-30T04:30:55;10.80;;;5.40;;
7527;SDS011;3805;49.006;8.514;2023-03-30T04:33:45;16.10;;;5.93;;
7527;SDS011;3805;49.006;8.514;2023-03-30T04:36:38;10.90;;;5.83;;
7527;SDS011;3805;49.006;8.514;2023-03-30T04:39:29;15.43;;;5.63;;
7527;SDS011;3805;49.006;8.514;2023-03-30T04:42:17;13.67;;;5.77;;
7527;SDS011;3805;49.006;8.514;2023-03-30T04:45:06;17.73;;;7.77;;
7527;SDS011;3805;49.006;8.514;2023-03-30T04:47:57;12.63;;;6.23;;
7527;SDS011;3805;49.006;8.514;2023-03-30T04:50:46;12.87;;;6.73;;
7527;SDS011;3805;49.006;8.514;2023-03-30T04:53:36;17.20;;;7.33;;
7527;SDS011;3805;49.006;8.514;2023-03-30T04:56:24;14.03;;;8.03;;
7527;SDS011;3805;49.006;8.514;2023-03-30T04:59:13;23.27;;;7.60;;
7527;SDS011;3805;49.006;8.514;2023-03-30T05:02:02;15.00;;;7.40;;
7527;SDS011;3805;49.006;8.514;2023-03-30T05:04:52;16.70;;;7.30;;
7527;SDS011;3805;49.006;8.514;2023-03-30T05:07:40;12.90;;;6.80;;
7527;SDS011;3805;49.006;8.514;2023-03-30T05:10:29;16.73;;;7.07;;
7527;SDS011;3805;49.006;8.514;2023-03-30T05:13:17;14.17;;;6.43;;
7527;SDS011;3805;49.006;8.514;2023-03-30T05:16:06;11.53;;;5.37;;
7527;SDS011;3805;49.006;8.514;2023-03-30T05:18:56;12.90;;;6.17;;
7527;SDS011;3805;49.006;8.514;2023-03-30T05:21:45;16.40;;;7.53;;
7527;SDS011;3805;49.006;8.514;2023-03-30T05:24:34;14.73;;;6.67;;
7527;SDS011;3805;49.006;8.514;2023-03-30T05:27:22;18.50;;;6.83;;
7527;SDS011;3805;49.006;8.514;2023-03-30T05:30:11;14.70;;;6.27;;
7527;SDS011;3805;49.006;8.514;2023-03-30T05:33:00;13.80;;;6.90;;
7527;SDS011;3805;49.006;8.514;2023-03-30T05:35:49;16.13;;;7.23;;
7527;SDS011;3805;49.006;8.514;2023-03-30T05:38:39;12.70;;;6.50;;
7527;SDS011;3805;49.006;8.514;2023-03-30T05:41:28;13.63;;;6.93;;
7527;SDS011;3805;49.006;8.514;2023-03-30T05:44:16;14.33;;;6.83;;
7527;SDS011;3805;49.006;8.514;2023-03-30T05:47:08;13.67;;;6.43;;
7527;SDS011;3805;49.006;8.514;2023-03-30T05:49:56;15.90;;;8.47;;
7527;SDS011;3805;49.006;8.514;2023-03-30T05:52:45;16.00;;;7.43;;
7527;SDS011;3805;49.006;8.514;2023-03-30T05:55:35;15.73;;;7.17;;
7527;SDS011;3805;49.006;8.514;2023-03-30T05:58:24;15.67;;;7.57;;
7527;SDS011;3805;49.006;8.514;2023-03-30T06:01:13;14.70;;;7.20;;
7527;SDS011;3805;49.006;8.514;2023-03-30T06:04:02;11.07;;;7.20;;
7527;SDS011;3805;49.006;8.514;2023-03-30T06:06:51;15.43;;;7.37;;
7527;SDS011;3805;49.006;8.514;2023-03-30T06:09:39;17.33;;;7.07;;
7527;SDS011;3805;49.006;8.514;2023-03-30T06:12:29;15.00;;;7.50;;
7527;SDS011;3805;49.006;8.514;2023-03-30T06:15:18;9.20;;;6.40;;
7527;SDS011;3805;49.006;8.514;2023-03-30T06:18:07;16.83;;;8.27;;
7527;SDS011;3805;49.006;8.514;2023-03-30T06:20:55;12.60;;;6.00;;
7527;SDS011;3805;49.006;8.514;2023-03-30T06:23:44;20.07;;;8.20;;
7527;SDS011;3805;49.006;8.514;2023-03-30T06:26:33;12.43;;;6.40;;
7527;SDS011;3805;49.006;8.514;2023-03-30T06:29:23;19.07;;;6.90;;
7527;SDS011;3805;49.006;8.514;2023-03-30T06:32:12;18.03;;;7.13;;
7527;SDS011;3805;49.006;8.514;2023-03-30T06:35:00;10.37;;;6.73;;
7527;SDS011;3805;49.006;8.514;2023-03-30T06:37:50;18.80;;;5.93;;
7527;SDS011;3805;49.006;8.514;2023-03-30T06:40:39;12.80;;;6.60;;
7527;SDS011;3805;49.006;8.514;2023-03-30T06:43:28;9.40;;;5.07;;
7527;SDS011;3805;49.006;8.514;2023-03-30T06:46:19;14.30;;;6.07;;
7527;SDS011;3805;49.006;8.514;2023-03-30T06:49:09;11.17;;;6.10;;
7527;SDS011;3805;49.006;8.514;2023-03-30T06:51:58;13.17;;;5.70;;
7527;SDS011;3805;49.006;8.514;2023-03-30T06:54:51;10.07;;;5.80;;
7527;SDS011;3805;49.006;8.514;2023-03-30T06:57:40;14.30;;;6.17;;
7527;SDS011;3805;49.006;8.514;2023-03-30T07:00:29;13.37;;;7.20;;
7527;SDS011;3805;49.006;8.514;2023-03-30T07:03:19;11.37;;;6.30;;
7527;SDS011;3805;49.006;8.514;2023-03-30T07:06:07;12.23;;;5.17;;
7527;SDS011;3805;49.006;8.514;2023-03-30T07:08:56;12.63;;;5.40;;
7527;SDS011;3805;49.006;8.514;2023-03-30T07:11:45;9.00;;;5.37;;
7527;SDS011;3805;49.006;8.514;2023-03-30T07:14:33;8.83;;;4.97;;
7527;SDS011;3805;49.006;8.514;2023-03-30T07:17:22;12.73;;;6.20;;
7527;SDS011;3805;49.006;8.514;2023-03-30T07:20:14;9.27;;;5.27;;
7527;SDS011;3805;49.006;8.514;2023-03-30T07:23:02;14.10;;;5.30;;
7527;SDS011;3805;49.006;8.514;2023-03-30T07:25:51;12.57;;;5.77;;
7527;SDS011;3805;49.006;8.514;2023-03-30T07:28:40;12.83;;;5.73;;
7527;SDS011;3805;49.006;8.514;2023-03-30T07:31:28;11.40;;;6.23;;
7527;SDS011;3805;49.006;8.514;2023-03-30T07:34:17;16.53;;;6.13;;
7527;SDS011;3805;49.006;8.514;2023-03-30T07:37:06;9.60;;;5.60;;
7527;SDS011;3805;49.006;8.514;2023-03-30T07:39:55;9.70;;;5.40;;
7527;SDS011;3805;49.006;8.514;2023-03-30T07:42:45;9.60;;;6.30;;
7527;SDS011;3805;49.006;8.514;2023-03-30T07:45:33;8.87;;;5.20;;
7527;SDS011;3805;49.006;8.514;2023-03-30T07:48:22;10.17;;;5.30;;
7527;SDS011;3805;49.006;8.514;2023-03-30T07:51:11;8.30;;;5.07;;
7527;SDS011;3805;49.006;8.514;2023-03-30T07:54:02;7.13;;;4.43;;
7527;SDS011;3805;49.006;8.514;2023-03-30T07:56:50;11.30;;;4.60;;
7527;SDS011;3805;49.006;8.514;2023-03-30T07:59:39;9.23;;;4.37;;
7527;SDS011;3805;49.006;8.514;2023-03-30T08:02:28;7.23;;;4.53;;
7527;SDS011;3805;49.006;8.514;2023-03-30T08:05:16;8.07;;;4.43;;
7527;SDS011;3805;49.006;8.514;2023-03-30T08:08:05;13.73;;;4.80;;
7527;SDS011;3805;49.006;8.514;2023-03-30T08:10:55;6.53;;;4.07;;
7527;SDS011;3805;49.006;8.514;2023-03-30T08:13:44;8.10;;;4.40;;
7527;SDS011;3805;49.006;8.514;2023-03-30T08:16:33;7.90;;;4.43;;
7527;SDS011;3805;49.006;8.514;2023-03-30T08:19:22;4.53;;;4.13;;
7527;SDS011;3805;49.006;8.514;2023-03-30T08:22:11;5.37;;;3.33;;
7527;SDS011;3805;49.006;8.514;2023-03-30T08:25:00;6.63;;;4.37;;
7527;SDS011;3805;49.006;8.514;2023-03-30T08:27:50;6.07;;;3.77;;
7527;SDS011;3805;49.006;8.514;2023-03-30T08:30:38;5.97;;;3.93;;
7527;SDS011;3805;49.006;8.514;2023-03-30T08:33:27;5.50;;;4.43;;
7527;SDS011;3805;49.006;8.514;2023-03-30T08:36:15;6.33;;;4.00;;
7527;SDS011;3805;49.006;8.514;2023-03-30T08:39:06;7.80;;;3.97;;
7527;SDS011;3805;49.006;8.514;2023-03-30T08:41:58;7.17;;;3.83;;
7527;SDS011;3805;49.006;8.514;2023-03-30T08:45:08;6.73;;;3.53;;
7527;SDS011;3805;49.006;8.514;2023-03-30T08:47:58;4.27;;;3.07;;
7527;SDS011;3805;49.006;8.514;2023-03-30T08:50:50;6.10;;;3.40;;
7527;SDS011;3805;49.006;8.514;2023-03-30T08:53:41;8.40;;;3.67;;
7527;SDS011;3805;49.006;8.514;2023-03-30T08:56:30;4.43;;;2.90;;
7527;SDS011;3805;49.006;8.514;2023-03-30T08:59:21;3.10;;;2.60;;
7527;SDS011;3805;49.006;8.514;2023-03-30T09:02:16;6.53;;;3.20;;
7527;SDS011;3805;49.006;8.514;2023-03-30T09:05:07;4.73;;;3.23;;
7527;SDS011;3805;49.006;8.514;2023-03-30T09:08:06;4.13;;;2.80;;
7527;SDS011;3805;49.006;8.514;2023-03-30T09:10:57;3.20;;;2.90;;
7527;SDS011;3805;49.006;8.514;2023-03-30T09:13:47;2.80;;;2.60;;
7527;SDS011;3805;49.006;8.514;2023-03-30T09:16:37;6.63;;;3.23;;
7527;SDS011;3805;49.006;8.514;2023-03-30T09:19:32;7.60;;;3.57;;
7527;SDS011;3805;49.006;8.514;2023-03-30T09:22:23;4.77;;;3.27;;
7527;SDS011;3805;49.006;8.514;2023-03-30T09:25:17;6.70;;;3.33;;
7527;SDS011;3805;49.006;8.514;2023-03-30T09:28:09;7.23;;;3.37;;
7527;SDS011;3805;49.006;8.514;2023-03-30T09:31:00;3.93;;;3.60;;
7527;SDS011;3805;49.006;8.514;2023-03-30T09:33:53;8.33;;;3.73;;
7527;SDS011;3805;49.006;8.514;2023-03-30T09:36:46;5.87;;;3.53;;
7527;SDS011;3805;49.006;8.514;2023-03-30T09:39:39;4.50;;;3.70;;
7527;SDS011;3805;49.006;8.514;2023-03-30T09:42:30;6.47;;;4.30;;
7527;SDS011;3805;49.006;8.514;2023-03-30T09:45:24;6.47;;;5.17;;
7527;SDS011;3805;49.006;8.514;2023-03-30T09:48:14;4.27;;;3.47;;
7527;SDS011;3805;49.006;8.514;2023-03-30T09:51:03;6.00;;;4.27;;
7527;SDS011;3805;49.006;8.514;2023-03-30T09:54:03;7.77;;;4.30;;
7527;SDS011;3805;49.006;8.514;2023-03-30T09:56:53;6.67;;;3.90;;
7527;SDS011;3805;49.006;8.514;2023-03-30T09:59:43;8.40;;;4.03;;
7527;SDS011;3805;49.006;8.514;2023-03-30T10:02:31;7.50;;;4.07;;
7527;SDS011;3805;49.006;8.514;2023-03-30T10:05:20;5.67;;;4.03;;
7527;SDS011;3805;49.006;8.514;2023-03-30T10:08:16;7.13;;;4.57;;
7527;SDS011;3805;49.006;8.514;2023-03-30T10:11:12;15.03;;;4.97;;
7527;SDS011;3805;49.006;8.514;2023-03-30T10:14:01;6.33;;;3.87;;
7527;SDS011;3805;49.006;8.514;2023-03-30T10:16:51;8.20;;;3.90;;
7527;SDS011;3805;49.006;8.514;2023-03-30T10:19:39;5.70;;;3.90;;
7527;SDS011;3805;49.006;8.514;2023-03-30T10:22:35;5.77;;;4.30;;
7527;SDS011;3805;49.006;8.514;2023-03-30T10:25:25;6.20;;;3.70;;
7527;SDS011;3805;49.006;8.514;2023-03-30T10:28:17;6.43;;;3.87;;
7527;SDS011;3805;49.006;8.514;2023-03-30T10:31:12;5.40;;;3.30;;
7527;SDS011;3805;49.006;8.514;2023-03-30T10:34:03;5.50;;;3.70;;
7527;SDS011;3805;49.006;8.514;2023-03-30T10:36:52;4.97;;;3.80;;
7527;SDS011;3805;49.006;8.514;2023-03-30T10:39:42;5.93;;;4.20;;
7527;SDS011;3805;49.006;8.514;2023-03-30T10:42:31;6.50;;;4.20;;
7527;SDS011;3805;49.006;8.514;2023-03-30T10:45:25;8.10;;;4.47;;
7527;SDS011;3805;49.006;8.514;2023-03-30T10:48:19;7.10;;;3.67;;
7527;SDS011;3805;49.006;8.514;2023-03-30T10:51:16;7.00;;;3.77;;
7527;SDS011;3805;49.006;8.514;2023-03-30T10:54:13;4.47;;;3.53;;
7527;SDS011;3805;49.006;8.514;2023-03-30T10:57:06;7.10;;;4.97;;
7527;SDS011;3805;49.006;8.514;2023-03-30T11:00:08;7.23;;;4.30;;
7527;SDS011;3805;49.006;8.514;2023-03-30T11:03:07;5.27;;;4.27;;
7527;SDS011;3805;49.006;8.514;2023-03-30T11:06:02;5.00;;;4.13;;
7527;SDS011;3805;49.006;8.514;2023-03-30T11:08:54;6.30;;;3.70;;
7527;SDS011;3805;49.006;8.514;2023-03-30T11:11:46;3.57;;;2.93;;
7527;SDS011;3805;49.006;8.514;2023-03-30T11:14:39;4.37;;;3.50;;
7527;SDS011;3805;49.006;8.514;2023-03-30T11:17:31;5.17;;;4.00;;
7527;SDS011;3805;49.006;8.514;2023-03-30T11:20:24;5.30;;;3.97;;
7527;SDS011;3805;49.006;8.514;2023-03-30T11:23:17;7.40;;;4.20;;
7527;SDS011;3805;49.006;8.514;2023-03-30T11:26:10;4.67;;;4.00;;
7527;SDS011;3805;49.006;8.514;2023-03-30T11:29:01;6.40;;;4.40;;
7527;SDS011;3805;49.006;8.514;2023-03-30T11:31:55;4.27;;;3.87;;
7527;SDS011;3805;49.006;8.514;2023-03-30T11:35:00;5.83;;;4.37;;
7527;SDS011;3805;49.006;8.514;2023-03-30T11:37:53;5.97;;;4.10;;
7527;SDS011;3805;49.006;8.514;2023-03-30T11:40:46;7.20;;;4.10;;
7527;SDS011;3805;49.006;8.514;2023-03-30T11:43:36;8.47;;;4.60;;
7527;SDS011;3805;49.006;8.514;2023-03-30T11:46:25;6.33;;;4.07;;
7527;SDS011;3805;49.006;8.514;2023-03-30T11:49:18;7.73;;;4.37;;
7527;SDS011;3805;49.006;8.514;2023-03-30T11:52:14;8.13;;;4.20;;
7527;SDS011;3805;49.006;8.514;2023-03-30T11:58:37;9.40;;;4.70;;
7527;SDS011;3805;49.006;8.514;2023-03-30T12:01:40;7.80;;;4.20;;
7527;SDS011;3805;49.006;8.514;2023-03-30T12:04:37;7.40;;;4.13;;
7527;SDS011;3805;49.006;8.514;2023-03-30T12:07:35;7.33;;;4.80;;
7527;SDS011;3805;49.006;8.514;2023-03-30T12:10:30;10.13;;;5.37;;
7527;SDS011;3805;49.006;8.514;2023-03-30T12:13:21;6.10;;;4.23;;
7527;SDS011;3805;49.006;8.514;2023-03-30T12:16:14;6.33;;;3.73;;
7527;SDS011;3805;49.006;8.514;2023-03-30T12:19:06;7.90;;;4.63;;
7527;SDS011;3805;49.006;8.514;2023-03-30T12:21:59;7.83;;;5.20;;
7527;SDS011;3805;49.006;8.514;2023-03-30T12:24:52;7.13;;;4.63;;
7527;SDS011;3805;49.006;8.514;2023-03-30T12:27:51;6.73;;;4.40;;
7527;SDS011;3805;49.006;8.514;2023-03-30T12:30:52;6.00;;;4.10;;
7527;SDS011;3805;49.006;8.514;2023-03-30T12:33:46;8.07;;;4.50;;
7527;SDS011;3805;49.006;8.514;2023-03-30T12:36:36;10.73;;;5.40;;
7527;SDS011;3805;49.006;8.514;2023-03-30T12:39:27;9.20;;;4.93;;
7527;SDS011;3805;49.006;8.514;2023-03-30T12:42:21;7.17;;;5.73;;
7527;SDS011;3805;49.006;8.514;2023-03-30T12:45:23;7.03;;;4.93;;
7527;SDS011;3805;49.006;8.514;2023-03-30T12:48:19;9.57;;;4.83;;
7527;SDS011;3805;49.006;8.514;2023-03-30T12:51:18;9.37;;;4.60;;
7527;SDS011;3805;49.006;8.514;2023-03-30T12:54:16;7.50;;;4.63;;
7527;SDS011;3805;49.006;8.514;2023-03-30T12:57:14;9.00;;;5.10;;
7527;SDS011;3805;49.006;8.514;2023-03-30T13:03:40;6.10;;;4.50;;
7527;SDS011;3805;49.006;8.514;2023-03-30T13:06:38;5.30;;;3.30;;
7527;SDS011;3805;49.006;8.514;2023-03-30T13:09:32;3.10;;;2.57;;
7527;SDS011;3805;49.006;8.514;2023-03-30T13:12:33;3.50;;;3.20;;
7527;SDS011;3805;49.006;8.514;2023-03-30T13:15:41;5.30;;;3.73;;
7527;SDS011;3805;49.006;8.514;2023-03-30T13:18:37;5.50;;;4.07;;
7527;SDS011;3805;49.006;8.514;2023-03-30T13:21:28;4.13;;;3.60;;
7527;SDS011;3805;49.006;8.514;2023-03-30T13:24:36;4.07;;;3.10;;
7527;SDS011;3805;49.006;8.514;2023-03-30T13:27:34;4.93;;;4.10;;
7527;SDS011;3805;49.006;8.514;2023-03-30T13:30:23;5.80;;;4.07;;
7527;SDS011;3805;49.006;8.514;2023-03-30T13:33:15;4.87;;;4.20;;
7527;SDS011;3805;49.006;8.514;2023-03-30T13:36:06;11.97;;;3.90;;
7527;SDS011;3805;49.006;8.514;2023-03-30T13:39:09;4.73;;;3.60;;
7527;SDS011;3805;49.006;8.514;2023-03-30T13:42:04;5.83;;;3.27;;
7527;SDS011;3805;49.006;8.514;2023-03-30T13:45:04;6.07;;;3.40;;
7527;SDS011;3805;49.006;8.514;2023-03-30T13:48:03;4.27;;;2.97;;
7527;SDS011;3805;49.006;8.514;2023-03-30T13:50:58;8.40;;;4.03;;
7527;SDS011;3805;49.006;8.514;2023-03-30T13:53:49;6.13;;;2.93;;
7527;SDS011;3805;49.006;8.514;2023-03-30T13:56:42;7.13;;;3.17;;
7527;SDS011;3805;49.006;8.514;2023-03-30T13:59:34;4.20;;;2.50;;
7527;SDS011;3805;49.006;8.514;2023-03-30T14:02:24;7.17;;;2.83;;
7527;SDS011;3805;49.006;8.514;2023-03-30T14:05:17;5.80;;;3.20;;
7527;SDS011;3805;49.006;8.514;2023-03-30T14:08:07;3.90;;;2.20;;
7527;SDS011;3805;49.006;8.514;2023-03-30T14:10:57;3.40;;;2.33;;
7527;SDS011;3805;49.006;8.514;2023-03-30T14:13:48;3.53;;;2.40;;
7527;SDS011;3805;49.006;8.514;2023-03-30T14:16:38;3.40;;;1.80;;
7527;SDS011;3805;49.006;8.514;2023-03-30T14:19:28;4.67;;;2.30;;
7527;SDS011;3805;49.006;8.514;2023-03-30T14:22:20;2.80;;;1.90;;
7527;SDS011;3805;49.006;8.514;2023-03-30T14:25:23;3.23;;;1.73;;
7527;SDS011;3805;49.006;8.514;2023-03-30T14:28:14;2.27;;;2.00;;
7527;SDS011;3805;49.006;8.514;2023-03-30T14:31:09;3.13;;;1.80;;
7527;SDS011;3805;49.006;8.514;2023-03-30T14:34:00;3.57;;;2.40;;
7527;SDS011;3805;49.006;8.514;2023-03-30T14:36:48;2.07;;;1.90;;
7527;SDS011;3805;49.006;8.514;2023-03-30T14:39:37;3.57;;;2.07;;
7527;SDS011;3805;49.006;8.514;2023-03-30T14:42:30;2.40;;;2.20;;
7527;SDS011;3805;49.006;8.514;2023-03-30T14:45:20;2.90;;;2.00;;
7527;SDS011;3805;49.006;8.514;2023-03-30T14:48:14;2.93;;;2.00;;
7527;SDS011;3805;49.006;8.514;2023-03-30T14:51:20;3.93;;;2.07;;
7527;SDS011;3805;49.006;8.514;2023-03-30T14:54:14;5.70;;;2.17;;
7527;SDS011;3805;49.006;8.514;2023-03-30T14:57:04;4.03;;;2.57;;
7527;SDS011;3805;49.006;8.514;2023-03-30T14:59:54;4.30;;;2.50;;
7527;SDS011;3805;49.006;8.514;2023-03-30T15:02:45;6.53;;;2.57;;
7527;SDS011;3805;49.006;8.514;2023-03-30T15:05:38;2.70;;;2.27;;
7527;SDS011;3805;49.006;8.514;2023-03-30T15:08:30;4.97;;;2.00;;
7527;SDS011;3805;49.006;8.514;2023-03-30T15:11:19;3.00;;;2.03;;
7527;SDS011;3805;49.006;8.514;2023-03-30T15:14:09;3.80;;;1.87;;
7527;SDS011;3805;49.006;8.514;2023-03-30T15:17:02;4.43;;;2.30;;
7527;SDS011;3805;49.006;8.514;2023-03-30T15:19:58;3.90;;;2.17;;
7527;SDS011;3805;49.006;8.514;2023-03-30T15:22:49;4.40;;;2.23;;
7527;SDS011;3805;49.006;8.514;2023-03-30T15:25:38;4.60;;;1.80;;
7527;SDS011;3805;49.006;8.514;2023-03-30T15:28:29;3.53;;;1.73;;
7527;SDS011;3805;49.006;8.514;2023-03-30T15:31:18;3.17;;;1.77;;
7527;SDS011;3805;49.006;8.514;2023-03-30T15:34:12;2.40;;;2.07;;
7527;SDS011;3805;49.006;8.514;2023-03-30T15:37:01;4.67;;;2.37;;
7527;SDS011;3805;49.006;8.514;2023-03-30T15:39:51;4.27;;;2.23;;
7527;SDS011;3805;49.006;8.514;2023-03-30T15:42:40;3.90;;;1.90;;
7527;SDS011;3805;49.006;8.514;2023-03-30T15:45:32;2.93;;;2.73;;
7527;SDS011;3805;49.006;8.514;2023-03-30T15:48:23;3.43;;;1.97;;
7527;SDS011;3805;49.006;8.514;2023-03-30T15:51:13;4.17;;;2.10;;
7527;SDS011;3805;49.006;8.514;2023-03-30T15:54:03;3.10;;;2.03;;
7527;SDS011;3805;49.006;8.514;2023-03-30T15:57:01;2.30;;;2.00;;
7527;SDS011;3805;49.006;8.514;2023-03-30T15:59:52;6.30;;;2.20;;
7527;SDS011;3805;49.006;8.514;2023-03-30T16:02:45;3.60;;;2.03;;
7527;SDS011;3805;49.006;8.514;2023-03-30T16:05:34;4.10;;;2.20;;
7527;SDS011;3805;49.006;8.514;2023-03-30T16:08:23;2.93;;;1.70;;
7527;SDS011;3805;49.006;8.514;2023-03-30T16:11:12;3.83;;;2.00;;
7527;SDS011;3805;49.006;8.514;2023-03-30T16:14:04;4.17;;;2.00;;
7527;SDS011;3805;49.006;8.514;2023-03-30T16:16:54;4.80;;;2.40;;
7527;SDS011;3805;49.006;8.514;2023-03-30T16:19:42;6.40;;;2.83;;
7527;SDS011;3805;49.006;8.514;2023-03-30T16:22:31;2.40;;;2.10;;
7527;SDS011;3805;49.006;8.514;2023-03-30T16:25:20;2.50;;;1.90;;
7527;SDS011;3805;49.006;8.514;2023-03-30T16:28:29;3.40;;;2.10;;
7527;SDS011;3805;49.006;8.514;2023-03-30T16:31:20;5.40;;;2.17;;
7527;SDS011;3805;49.006;8.514;2023-03-30T16:34:09;2.27;;;1.70;;
7527;SDS011;3805;49.006;8.514;2023-03-30T16:36:58;4.17;;;2.73;;
7527;SDS011;3805;49.006;8.514;2023-03-30T16:39:46;5.33;;;2.00;;
7527;SDS011;3805;49.006;8.514;2023-03-30T16:42:35;3.87;;;1.60;;
7527;SDS011;3805;49.006;8.514;2023-03-30T16:45:23;3.70;;;1.70;;
7527;SDS011;3805;49.006;8.514;2023-03-30T16:48:13;4.33;;;1.80;;
7527;SDS011;3805;49.006;8.514;2023-03-30T16:51:02;3.67;;;1.90;;
7527;SDS011;3805;49.006;8.514;2023-03-30T16:53:51;3.53;;;1.90;;
7527;SDS011;3805;49.006;8.514;2023-03-30T16:56:39;6.03;;;2.20;;
7527;SDS011;3805;49.006;8.514;2023-03-30T16:59:28;3.93;;;1.73;;
7527;SDS011;3805;49.006;8.514;2023-03-30T17:02:18;5.20;;;1.87;;
7527;SDS011;3805;49.006;8.514;2023-03-30T17:05:08;3.07;;;1.60;;
7527;SDS011;3805;49.006;8.514;2023-03-30T17:08:00;6.90;;;2.70;;
7527;SDS011;3805;49.006;8.514;2023-03-30T17:10:51;4.90;;;2.40;;
7527;SDS011;3805;49.006;8.514;2023-03-30T17:13:40;4.17;;;1.80;;
7527;SDS011;3805;49.006;8.514;2023-03-30T17:16:29;3.43;;;2.00;;
7527;SDS011;3805;49.006;8.514;2023-03-30T17:19:18;4.70;;;2.10;;
7527;SDS011;3805;49.006;8.514;2023-03-30T17:22:08;3.30;;;2.17;;
7527;SDS011;3805;49.006;8.514;2023-03-30T17:24:56;5.37;;;2.50;;
7527;SDS011;3805;49.006;8.514;2023-03-30T17:27:45;3.00;;;2.40;;
7527;SDS011;3805;49.006;8.514;2023-03-30T17:30:35;6.73;;;3.40;;
7527;SDS011;3805;49.006;8.514;2023-03-30T17:33:26;5.93;;;3.40;;
7527;SDS011;3805;49.006;8.514;2023-03-30T17:36:15;7.40;;;4.70;;
7527;SDS011;3805;49.006;8.514;2023-03-30T17:39:08;21.13;;;8.87;;
7527;SDS011;3805;49.006;8.514;2023-03-30T17:41:58;16.53;;;9.00;;
7527;SDS011;3805;49.006;8.514;2023-03-30T17:44:47;13.80;;;9.17;;
7527;SDS011;3805;49.006;8.514;2023-03-30T17:47:35;15.57;;;10.60;;
7527;SDS011;3805;49.006;8.514;2023-03-30T17:50:25;6.87;;;5.83;;